.
WxDataArchive / Data Records for 2012-07-18
2012-07-17 July 2012 2012-07-19

Data Records for Wednesday, 18 July 2012

Time	Temp	Chill	HIndex	Humid	Dewpt	 Wind 	HiWind	WindDir	Rain 	Barom 
-----	----	-----	------	-----	-----	------	------	-------	-----	----- 
00:00	79.2	79.2	81.1	63	65.5	0	0	---	0.00	29.834 
00:05	79.0	79.0	80.9	63	65.3	0	0	---	0.00	29.834 
00:10	79.0	79.0	81.0	64	65.8	0	0	---	0.00	29.834 
00:15	78.8	78.8	80.8	65	66.0	0	0	---	0.00	29.832 
00:20	78.6	78.6	80.6	65	65.8	0	0	---	0.00	29.832 
00:25	78.5	78.5	80.5	66	66.2	0	0	---	0.00	29.832 
00:30	78.3	78.3	80.2	66	66.0	0	0	---	0.00	29.824 
00:35	78.3	78.3	80.3	67	66.4	0	0	---	0.00	29.824 
00:40	78.1	78.1	80.0	67	66.2	0	0	---	0.00	29.824 
00:45	77.9	77.9	79.9	69	66.9	0	0	---	0.00	29.819 
00:50	77.9	77.9	79.9	69	66.9	0	0	---	0.00	29.819 
00:55	77.7	77.7	79.6	69	66.7	0	0	---	0.00	29.819 
01:00	77.7	77.7	79.6	70	67.1	0	0	---	0.00	29.824 
01:05	77.7	77.7	79.7	71	67.5	0	0	---	0.00	29.824 
01:10	77.9	77.9	79.9	71	67.7	0	0	---	0.00	29.824 
01:15	77.9	77.9	79.9	71	67.7	0	0	---	0.00	29.828 
01:20	77.9	77.9	79.9	72	68.1	0	0	---	0.00	29.828 
01:25	78.1	78.1	80.2	72	68.3	0	1	248	0.00	29.828 
01:30	78.1	78.1	80.3	73	68.7	0	0	---	0.00	29.822 
01:35	78.5	78.5	80.9	73	69.1	0	1	248	0.00	29.822 
01:40	78.6	78.6	81.0	73	69.2	0	1	248	0.00	29.822 
01:45	78.8	78.8	81.3	73	69.4	0	2	248	0.00	29.825 
01:50	79.0	79.0	81.6	73	69.6	0	1	248	0.00	29.825 
01:55	79.2	79.2	82.1	74	70.2	0	1	248	0.00	29.825 
02:00	79.2	79.2	82.1	74	70.2	0	1	248	0.00	29.818 
02:05	79.2	79.2	82.1	74	70.2	0	1	248	0.00	29.818 
02:10	79.2	79.2	82.1	74	70.2	0	1	248	0.00	29.818 
02:15	79.2	79.2	82.1	74	70.2	0	0	---	0.00	29.819 
02:20	79.2	79.2	82.1	74	70.2	0	0	---	0.00	29.819 
02:25	79.0	79.0	81.8	75	70.4	0	1	248	0.00	29.819 
02:30	79.0	79.0	81.8	75	70.4	0	0	---	0.00	29.818 
02:35	78.8	78.8	81.5	75	70.2	0	1	248	0.00	29.818 
02:40	78.8	78.8	81.5	76	70.6	0	1	248	0.00	29.818 
02:45	78.8	78.8	81.5	76	70.6	0	1	248	0.00	29.817 
02:50	78.6	78.6	81.2	76	70.4	0	1	248	0.00	29.817 
02:55	78.6	78.6	81.2	77	70.8	0	1	248	0.00	29.817 
03:00	78.6	78.6	81.2	77	70.8	0	1	248	0.00	29.823 
03:05	78.6	78.6	81.2	77	70.8	0	1	248	0.00	29.823 
03:10	78.5	78.5	81.1	77	70.7	0	1	248	0.00	29.823 
03:15	78.5	78.5	81.1	77	70.7	0	0	---	0.00	29.827 
03:20	78.5	78.5	81.1	77	70.7	0	1	248	0.00	29.827 
03:25	78.5	78.5	81.1	77	70.7	0	1	248	0.00	29.827 
03:30	78.3	78.3	80.7	77	70.5	0	1	248	0.00	29.834 
03:35	78.3	78.3	80.7	77	70.5	0	1	248	0.00	29.834 
03:40	78.3	78.3	80.7	77	70.5	0	1	248	0.00	29.834 
03:45	78.3	78.3	80.7	77	70.5	1	3	248	0.00	29.834 
03:50	78.3	78.3	80.7	77	70.5	0	2	248	0.00	29.834 
03:55	78.3	78.3	80.7	77	70.5	0	1	248	0.00	29.834 
04:00	78.1	78.1	80.4	77	70.3	0	1	248	0.00	29.835 
04:05	78.1	78.1	80.4	77	70.3	0	1	248	0.00	29.835 
04:10	77.9	77.9	80.1	77	70.1	1	2	248	0.00	29.835 
04:15	77.9	77.9	80.1	78	70.5	0	1	248	0.00	29.836 
04:20	77.9	77.9	80.1	78	70.5	0	1	248	0.00	29.836 
04:25	77.7	77.7	79.7	78	70.3	0	1	248	0.00	29.836 
04:30	77.7	77.7	79.7	78	70.3	0	1	248	0.00	29.836 
04:35	77.6	77.6	79.6	78	70.2	0	1	248	0.00	29.836 
04:40	77.6	77.6	79.6	79	70.6	0	1	248	0.00	29.836 
04:45	77.6	77.6	79.6	79	70.6	0	1	248	0.00	29.838 
04:50	77.4	77.4	79.3	79	70.4	0	2	248	0.00	29.838 
04:55	77.4	77.4	79.3	79	70.4	0	1	248	0.00	29.838 
05:00	77.4	77.4	79.3	79	70.4	0	1	248	0.00	29.837 
05:05	77.2	77.2	78.9	80	70.5	0	1	248	0.00	29.837 
05:10	77.2	77.2	78.9	80	70.5	0	1	248	0.00	29.837 
05:15	77.0	77.0	78.6	80	70.3	0	1	248	0.00	29.838 
05:20	77.0	77.0	78.6	80	70.3	0	1	248	0.00	29.838 
05:25	77.0	77.0	78.6	80	70.3	0	1	248	0.00	29.838 
05:30	77.0	77.0	78.6	80	70.3	0	1	248	0.00	29.837 
05:35	77.0	77.0	78.5	81	70.7	0	1	248	0.00	29.837 
05:40	77.0	77.0	78.5	81	70.7	0	1	248	0.00	29.837 
05:45	76.8	76.8	78.2	81	70.5	0	1	248	0.00	29.840 
05:50	76.8	76.8	78.2	81	70.5	0	1	248	0.00	29.840 
05:55	76.8	76.8	78.2	81	70.5	0	1	248	0.00	29.840 
06:00	76.8	76.8	78.2	81	70.5	0	1	248	0.00	29.842 
06:05	76.8	76.8	78.2	81	70.5	0	2	248	0.00	29.842 
06:10	76.8	76.8	78.2	81	70.5	0	1	248	0.00	29.842 
06:15	76.8	76.8	78.2	81	70.5	1	1	248	0.00	29.850 
06:20	76.8	76.8	78.2	81	70.5	0	1	248	0.00	29.850 
06:25	76.8	76.8	78.2	81	70.5	0	1	248	0.00	29.850 
06:30	76.8	76.8	78.2	81	70.5	0	1	248	0.00	29.853 
06:35	76.8	76.8	78.2	81	70.5	0	1	248	0.00	29.853 
06:40	76.8	76.8	78.2	81	70.5	0	1	248	0.00	29.853 
06:45	77.0	77.0	78.5	81	70.7	0	1	248	0.00	29.854 
06:50	77.0	77.0	78.6	80	70.3	1	3	248	0.00	29.854 
06:55	77.2	77.2	78.9	80	70.5	1	1	248	0.00	29.854 
07:00	77.2	77.2	78.9	80	70.5	1	2	248	0.00	29.856 
07:05	77.4	77.4	79.3	79	70.4	1	2	248	0.00	29.856 
07:10	77.6	77.6	79.6	79	70.6	1	2	248	0.00	29.856 
07:15	77.7	77.7	79.8	79	70.7	1	2	248	0.00	29.861 
07:20	77.7	77.7	79.7	78	70.3	1	2	248	0.00	29.861 
07:25	77.9	77.9	80.1	78	70.5	1	2	248	0.00	29.861 
07:30	78.3	78.3	80.7	77	70.5	1	3	248	0.00	29.871 
07:35	78.5	78.5	81.1	77	70.7	1	2	248	0.00	29.871 
07:40	78.8	78.8	81.5	76	70.6	1	2	248	0.00	29.871 
07:45	79.2	79.2	82.2	76	71.0	1	3	248	0.00	29.875 
07:50	79.4	79.4	82.5	75	70.8	1	3	248	0.00	29.875 
07:55	79.6	79.6	82.7	74	70.6	1	3	248	0.00	29.875 
08:00	79.9	79.9	83.1	73	70.4	1	3	248	0.00	29.872 
08:05	80.3	80.3	83.9	73	70.8	2	5	270	0.00	29.872 
08:10	80.7	80.7	84.4	72	70.8	2	4	270	0.00	29.872 
08:15	81.1	81.1	85.0	71	70.8	1	3	270	0.00	29.869 
08:20	81.6	81.6	85.7	70	70.8	2	3	270	0.00	29.869 
08:25	82.0	82.0	86.2	69	70.8	1	3	270	0.00	29.869 
08:30	82.4	82.4	86.7	68	70.8	1	3	270	0.00	29.870 
08:35	82.8	82.8	87.2	67	70.7	1	2	270	0.00	29.870 
08:40	83.4	83.4	88.1	66	70.8	1	3	270	0.00	29.870 
08:45	83.6	83.6	88.2	65	70.6	1	2	270	0.00	29.868 
08:50	84.0	84.0	88.6	64	70.5	1	3	270	0.00	29.868 
08:55	84.1	84.1	88.8	64	70.6	2	3	315	0.00	29.868 
09:00	84.3	84.3	89.2	64	70.8	2	4	315	0.00	29.877 
09:05	84.7	84.7	89.6	63	70.7	1	4	315	0.00	29.877 
09:10	84.9	84.9	90.0	63	70.9	1	3	315	0.00	29.877 
09:15	85.5	85.5	90.8	62	71.0	1	4	315	0.00	29.880 
09:20	85.7	85.7	91.2	62	71.1	1	2	270	0.00	29.880 
09:25	85.9	85.9	91.3	61	70.9	1	2	248	0.00	29.880 
09:30	85.9	85.9	91.3	61	70.9	1	2	248	0.00	29.879 
09:35	86.7	86.7	92.5	60	71.1	1	3	248	0.00	29.879 
09:40	87.6	87.6	93.4	58	71.0	1	3	248	0.00	29.879 
09:45	88.2	88.2	94.2	57	71.0	1	3	248	0.00	29.881 
09:50	88.4	88.4	94.2	56	70.7	0	2	248	0.00	29.881 
09:55	88.8	88.8	95.0	56	71.0	1	3	112	0.00	29.881 
10:00	89.0	89.0	95.4	56	71.2	1	3	112	0.00	29.883 
10:05	89.3	89.3	95.5	55	71.0	1	3	112	0.00	29.883 
10:10	89.5	89.5	95.9	55	71.2	2	4	112	0.00	29.883 
10:15	89.7	89.7	95.9	54	70.8	0	2	112	0.00	29.883 
10:20	89.5	89.5	95.9	55	71.2	0	1	112	0.00	29.883 
10:25	89.9	89.9	96.3	54	71.0	1	3	112	0.00	29.883 
10:30	90.3	90.3	96.6	53	70.8	1	3	112	0.00	29.884 
10:35	91.2	91.2	98.0	52	71.1	0	1	112	0.00	29.884 
10:40	92.3	92.3	99.2	50	70.9	1	3	112	0.00	29.884 
10:45	92.7	92.7	100.0	50	71.3	1	2	112	0.00	29.883 
10:50	92.7	92.7	99.4	49	70.7	1	5	112	0.00	29.883 
10:55	92.7	92.7	100.0	50	71.3	0	2	112	0.00	29.883 
11:00	93.2	93.2	100.5	49	71.1	1	2	112	0.00	29.884 
11:05	93.4	93.4	100.3	48	70.7	1	3	112	0.00	29.884 
11:10	93.4	93.4	100.9	49	71.3	1	3	112	0.00	29.884 
11:15	92.7	92.7	99.4	49	70.7	1	3	112	0.00	29.895 
11:20	91.8	91.8	98.7	51	71.0	1	4	112	0.00	29.895 
11:25	91.2	91.2	97.4	51	70.5	0	2	112	0.00	29.895 
11:30	91.2	91.2	98.0	52	71.1	0	1	112	0.00	29.899 
11:35	91.0	91.0	96.5	50	69.7	0	2	112	0.00	29.899 
11:40	90.7	90.7	96.4	51	70.0	1	3	112	0.00	29.899 
11:45	91.2	91.2	96.9	50	69.9	0	1	112	0.00	29.898 
11:50	91.4	91.4	97.3	50	70.1	1	4	112	0.00	29.898 
11:55	92.1	92.1	98.8	50	70.7	0	2	112	0.00	29.898 
12:00	91.6	91.6	97.7	50	70.3	1	2	112	0.00	29.897 
12:05	92.3	92.3	98.6	49	70.3	1	3	112	0.00	29.897 
12:10	93.4	93.4	100.9	49	71.3	0	1	112	0.00	29.897 
12:15	94.5	94.5	100.9	45	69.8	0	2	112	0.00	29.885 
12:20	95.4	95.4	102.1	44	70.0	1	5	112	0.00	29.885 
12:25	96.1	96.1	103.6	44	70.6	1	3	292	0.00	29.885 
12:30	96.3	96.3	102.7	42	69.4	1	3	292	0.00	29.877 
12:35	96.8	96.8	103.1	41	69.2	1	5	112	0.00	29.877 
12:40	97.1	97.1	103.1	40	68.7	1	3	112	0.00	29.877 
12:45	95.9	95.9	101.3	41	68.4	1	4	338	0.00	29.864 
12:50	94.7	94.7	100.1	43	68.7	1	2	338	0.00	29.864 
12:55	93.4	93.4	98.6	45	68.8	1	3	338	0.00	29.864 
13:00	90.5	90.5	97.0	53	71.0	3	10	338	0.00	29.856 
13:05	84.3	84.3	88.3	61	69.4	3	10	315	0.01	29.856 
13:10	78.1	78.1	80.2	70	67.5	3	7	338	0.05	29.856 
13:15	76.0	76.0	77.3	76	67.9	1	3	315	0.00	29.872 
13:20	75.6	75.6	76.6	78	68.2	1	6	315	0.00	29.872 
13:25	75.8	75.8	76.7	80	69.2	1	3	270	0.00	29.872 
13:30	76.0	76.0	76.7	83	70.4	1	3	270	0.00	29.910 
13:35	75.8	75.8	76.4	83	70.3	1	5	68	0.00	29.910 
13:40	75.4	75.4	75.8	83	69.9	1	3	90	0.00	29.910 
13:45	75.3	75.3	75.5	84	70.1	1	2	248	0.00	29.910 
13:50	74.9	74.9	74.9	84	69.7	1	4	112	0.00	29.910 
13:55	74.6	74.6	74.6	85	69.8	1	4	90	0.00	29.910 
14:00	74.4	74.4	74.4	86	69.9	0	2	90	0.00	29.930 
14:05	74.2	74.2	74.2	87	70.1	0	2	90	0.00	29.930 
14:10	74.2	74.2	74.2	87	70.1	1	3	270	0.00	29.930 
14:15	73.7	73.7	73.7	84	68.6	1	5	270	0.01	29.901 
14:20	73.5	73.5	73.5	83	68.0	0	4	248	0.00	29.901 
14:25	73.5	73.5	73.5	83	68.0	1	3	248	0.00	29.901 
14:30	73.5	73.5	73.5	83	68.0	0	2	248	0.00	29.899 
14:35	73.7	73.7	73.7	84	68.6	0	1	248	0.00	29.899 
14:40	73.7	73.7	73.7	84	68.6	0	1	248	0.00	29.899 
14:45	73.9	73.9	73.9	84	68.7	0	1	248	0.00	29.896 
14:50	73.9	73.9	73.9	84	68.7	0	2	248	0.00	29.896 
14:55	73.9	73.9	73.9	84	68.7	0	1	248	0.00	29.896 
15:00	74.0	74.0	74.0	84	68.8	0	1	248	0.00	29.880 
15:05	74.2	74.2	74.2	84	69.0	0	1	248	0.00	29.880 
15:10	74.4	74.4	74.4	84	69.2	0	0	---	0.00	29.880 
15:15	74.4	74.4	74.4	84	69.2	0	0	---	0.00	29.878 
15:20	74.7	74.7	74.7	83	69.2	0	1	248	0.00	29.878 
15:25	75.1	75.1	75.2	84	69.9	0	0	---	0.00	29.878 
15:30	75.3	75.3	75.6	83	69.8	0	0	---	0.00	29.889 
15:35	75.6	75.6	76.1	83	70.1	0	0	---	0.00	29.889 
15:40	76.1	76.1	77.0	82	70.2	0	0	---	0.00	29.889 
15:45	76.7	76.7	78.0	82	70.8	0	0	---	0.00	29.894 
15:50	77.2	77.2	78.9	81	70.9	0	1	248	0.00	29.894 
15:55	77.9	77.9	80.1	80	71.2	0	1	248	0.00	29.894 
16:00	78.8	78.8	81.7	78	71.3	0	1	248	0.00	29.883 
16:05	79.4	79.4	82.5	75	70.8	0	1	248	0.00	29.883 
16:10	80.3	80.3	84.0	74	71.2	0	1	248	0.00	29.883 
16:15	81.1	81.1	85.2	72	71.2	0	1	248	0.00	29.876 
16:20	81.6	81.6	85.9	71	71.3	0	1	248	0.00	29.876 
16:25	82.4	82.4	87.0	69	71.2	0	2	248	0.00	29.876 
16:30	83.2	83.2	88.5	69	71.9	0	1	248	0.00	29.871 
16:35	83.8	83.8	89.7	69	72.5	1	4	248	0.00	29.871 
16:40	84.1	84.1	90.0	68	72.4	1	3	90	0.00	29.871 
16:45	84.3	84.3	90.8	69	73.0	1	4	90	0.00	29.867 
16:50	84.1	84.1	90.4	69	72.8	2	4	90	0.00	29.867 
16:55	84.0	84.0	90.2	69	72.7	1	3	68	0.00	29.867 
17:00	84.0	84.0	90.5	70	73.1	1	3	68	0.00	29.861 
17:05	83.6	83.6	89.6	70	72.8	3	10	90	0.00	29.861 
17:10	83.0	83.0	88.9	72	73.0	2	6	68	0.00	29.861 
17:15	82.4	82.4	87.9	73	72.9	2	4	90	0.00	29.858 
17:20	81.8	81.8	86.5	72	71.9	2	6	90	0.00	29.858 
17:25	81.2	81.2	85.5	73	71.7	1	3	112	0.00	29.858 
17:30	81.1	81.1	85.5	74	72.0	2	3	112	0.00	29.854 
17:35	81.1	81.1	85.5	74	72.0	1	4	90	0.00	29.854 
17:40	81.1	81.1	85.3	73	71.6	1	2	90	0.00	29.854 
17:45	81.1	81.1	85.0	71	70.8	1	3	90	0.00	29.852 
17:50	81.2	81.2	85.2	71	70.9	0	2	90	0.00	29.852 
17:55	81.4	81.4	85.3	70	70.7	0	2	90	0.00	29.852 
18:00	81.8	81.8	86.1	70	71.0	1	2	90	0.00	29.846 
18:05	82.0	82.0	86.7	71	71.6	1	3	90	0.00	29.846 
18:10	82.0	82.0	86.4	70	71.2	0	2	90	0.00	29.846 
18:15	82.2	82.2	86.8	70	71.4	1	3	90	0.00	29.845 
18:20	82.2	82.2	87.0	71	71.8	0	3	112	0.00	29.845 
18:25	82.2	82.2	86.8	70	71.4	0	2	112	0.00	29.845 
18:30	82.2	82.2	86.6	69	71.0	1	2	112	0.00	29.840 
18:35	82.2	82.2	86.6	69	71.0	1	2	112	0.00	29.840 
18:40	82.2	82.2	86.6	69	71.0	1	2	112	0.00	29.840 
18:45	82.4	82.4	87.0	69	71.2	0	1	112	0.00	29.844 
18:50	82.4	82.4	87.0	69	71.2	0	1	112	0.00	29.844 
18:55	82.6	82.6	87.3	69	71.4	0	1	112	0.00	29.844 
19:00	82.8	82.8	87.7	69	71.6	0	1	112	0.00	29.846 
19:05	82.8	82.8	87.7	69	71.6	0	2	112	0.00	29.846 
19:10	82.8	82.8	87.7	69	71.6	0	2	112	0.00	29.846 
19:15	82.8	82.8	88.0	70	72.0	1	6	112	0.00	29.843 
19:20	82.8	82.8	88.0	70	72.0	1	5	90	0.00	29.843 
19:25	82.8	82.8	88.2	71	72.4	0	2	90	0.00	29.843 
19:30	82.6	82.6	88.1	72	72.6	1	3	90	0.00	29.834 
19:35	82.2	82.2	87.3	72	72.2	1	3	90	0.00	29.834 
19:40	82.0	82.0	87.1	73	72.5	0	2	90	0.00	29.834 
19:45	82.0	82.0	87.1	73	72.5	0	1	90	0.00	29.831 
19:50	82.0	82.0	87.1	73	72.5	0	2	90	0.00	29.831 
19:55	82.0	82.0	87.1	73	72.5	0	1	90	0.00	29.831 
20:00	82.0	82.0	87.1	73	72.5	0	2	90	0.00	29.841 
20:05	81.8	81.8	86.9	74	72.7	0	2	90	0.00	29.841 
20:10	81.6	81.6	86.7	75	72.9	0	2	90	0.00	29.841 
20:15	81.4	81.4	86.5	76	73.1	0	2	90	0.00	29.865 
20:20	81.2	81.2	86.1	76	72.9	0	2	90	0.00	29.865 
20:25	81.1	81.1	85.9	76	72.8	0	2	90	0.00	29.865 
20:30	80.9	80.9	85.7	77	73.0	0	1	90	0.00	29.869 
20:35	80.7	80.7	85.2	77	72.8	0	1	90	0.00	29.869 
20:40	80.5	80.5	84.8	77	72.6	0	2	90	0.00	29.869 
20:45	80.3	80.3	84.4	77	72.4	0	1	90	0.00	29.871 
20:50	80.1	80.1	84.2	78	72.6	0	0	---	0.00	29.871 
20:55	80.1	80.1	84.2	78	72.6	0	1	90	0.00	29.871 
21:00	79.9	79.9	83.8	78	72.4	0	1	90	0.00	29.867 
21:05	79.8	79.8	83.7	79	72.7	0	2	90	0.00	29.867 
21:10	79.8	79.8	83.7	79	72.7	0	1	90	0.00	29.867 
21:15	79.6	79.6	83.3	79	72.5	0	2	90	0.00	29.866 
21:20	79.4	79.4	83.0	80	72.7	0	1	90	0.00	29.866 
21:25	79.2	79.2	82.6	80	72.5	0	2	90	0.00	29.866 
21:30	79.0	79.0	82.3	81	72.7	0	2	90	0.00	29.874 
21:35	79.0	79.0	82.3	81	72.7	0	0	---	0.00	29.874 
21:40	78.8	78.8	81.9	81	72.5	0	1	90	0.00	29.874 
21:45	78.6	78.6	81.5	81	72.3	1	3	90	0.00	29.876 
21:50	78.6	78.6	81.5	81	72.3	0	1	90	0.00	29.876 
21:55	78.6	78.6	81.5	81	72.3	0	2	90	0.00	29.876 
22:00	78.5	78.5	81.3	81	72.2	1	3	90	0.00	29.883 
22:05	78.3	78.3	80.9	82	72.3	1	3	90	0.00	29.883 
22:10	78.3	78.3	80.9	82	72.3	0	1	90	0.00	29.883 
22:15	78.3	78.3	80.9	82	72.3	0	1	90	0.00	29.884 
22:20	78.1	78.1	80.5	82	72.1	0	2	90	0.00	29.884 
22:25	78.1	78.1	80.5	82	72.1	1	4	90	0.00	29.884 
22:30	78.1	78.1	80.6	83	72.5	0	2	90	0.00	29.899 
22:35	77.9	77.9	80.2	83	72.3	0	2	90	0.00	29.899 
22:40	77.9	77.9	80.2	83	72.3	0	2	90	0.00	29.899 
22:45	77.7	77.7	79.8	83	72.1	0	3	90	0.00	29.898 
22:50	77.7	77.7	79.8	83	72.1	0	2	90	0.00	29.898 
22:55	77.6	77.6	79.6	84	72.4	0	2	90	0.00	29.898 
23:00	77.6	77.6	79.6	84	72.4	0	2	90	0.00	29.913 
23:05	77.4	77.4	79.2	85	72.5	1	3	90	0.00	29.913 
23:10	77.2	77.2	78.8	85	72.3	1	3	90	0.00	29.913 
23:15	77.0	77.0	78.4	86	72.5	1	4	90	0.00	29.912 
23:20	76.8	76.8	78.0	86	72.3	2	5	112	0.00	29.912 
23:25	76.7	76.7	77.7	87	72.5	1	4	112	0.00	29.912 
23:30	76.7	76.7	77.7	87	72.5	2	9	112	0.00	29.909 
23:35	76.5	76.5	77.3	87	72.3	1	3	90	0.00	29.909 
23:40	76.5	76.5	77.3	87	72.3	0	2	90	0.00	29.909 
23:45	76.3	76.3	76.9	87	72.1	1	4	68	0.00	29.912 
23:50	76.3	76.3	76.9	87	72.1	0	2	68	0.00	29.912 
23:55	76.3	76.3	76.9	87	72.1	0	3	68	0.00	29.912 

CoCoRaHS
IN-AL-39
A2 Web Hosting
Creative Commons License
GoDaddy
search engine by freefind advanced

loaded 2018-11-15 03:03:44 • last modified 2010-11-18 10:43:29
Privacy PolicyDisclaimer
• wx.awcolley.com is powered by PmWiki v.2002016 •
• all content (unless otherwise noted) © 2018 A W Colley